Airport View

Enter AWOS ICAO identifier for current METAR.

ex. KFNL

KMGC 192000Z AUTO 23008KT 2 1/2SM -SN OVC012 M10/M10 A3029 RMK AO2

19 Jan 2020 20:10

Frequency: 128.450

Phone: 219-878-1106

Other Area AWOS: KPPO - KVPZ - KSBN - KOXI

TAF KSBN 191731Z 1918/2018 26015G24KT 1 1/2SM -SHSN OVC025 FM191930 29015G25KT 1/2SM SHSN FZFG VV004 FM192100 31012KT 4SM -SHSN OVC020 FM200200 35006KT P6SM SCT025 OVC200 FM200900 03003KT P6SM BKN025